sensor_id;sensor_type;location;lat;lon;timestamp;pressure;altitude;pressure_sealevel;temperature;humidity
43824;BME280;29470;53.550;9.926;2023-06-14T00:00:43;101470.53;;;18.19;63.33
43824;BME280;29470;53.550;9.926;2023-06-14T00:05:48;101462.72;;;18.37;62.62
43824;BME280;29470;53.550;9.926;2023-06-14T00:10:51;101478.47;;;18.57;61.66
43824;BME280;29470;53.550;9.926;2023-06-14T00:15:54;101479.81;;;18.30;62.78
43824;BME280;29470;53.550;9.926;2023-06-14T00:20:58;101475.19;;;18.43;62.60
43824;BME280;29470;53.550;9.926;2023-06-14T00:26:01;101485.66;;;18.24;63.05
43824;BME280;29470;53.550;9.926;2023-06-14T00:31:04;101489.16;;;18.25;63.07
43824;BME280;29470;53.550;9.926;2023-06-14T00:36:08;101489.31;;;18.28;62.98
43824;BME280;29470;53.550;9.926;2023-06-14T00:41:11;101485.72;;;18.26;63.18
43824;BME280;29470;53.550;9.926;2023-06-14T00:46:16;101493.72;;;18.11;63.83
43824;BME280;29470;53.550;9.926;2023-06-14T00:51:22;101504.00;;;18.24;63.44
43824;BME280;29470;53.550;9.926;2023-06-14T00:56:25;101498.03;;;17.94;64.38
43824;BME280;29470;53.550;9.926;2023-06-14T01:01:29;101495.28;;;17.91;65.38
43824;BME280;29470;53.550;9.926;2023-06-14T01:06:43;101502.41;;;18.10;64.54
43824;BME280;29470;53.550;9.926;2023-06-14T01:11:50;101504.91;;;18.08;64.28
43824;BME280;29470;53.550;9.926;2023-06-14T01:16:58;101502.56;;;17.96;64.64
43824;BME280;29470;53.550;9.926;2023-06-14T01:22:04;101510.28;;;17.77;65.88
43824;BME280;29470;53.550;9.926;2023-06-14T01:27:08;101512.78;;;18.08;64.65
43824;BME280;29470;53.550;9.926;2023-06-14T01:32:11;101512.78;;;18.08;64.56
43824;BME280;29470;53.550;9.926;2023-06-14T01:37:15;101510.97;;;17.91;65.54
43824;BME280;29470;53.550;9.926;2023-06-14T01:42:20;101506.19;;;17.82;65.75
43824;BME280;29470;53.550;9.926;2023-06-14T01:47:23;101505.75;;;17.91;65.87
43824;BME280;29470;53.550;9.926;2023-06-14T01:52:27;101517.22;;;17.76;65.83
43824;BME280;29470;53.550;9.926;2023-06-14T01:57:31;101513.03;;;17.80;66.08
43824;BME280;29470;53.550;9.926;2023-06-14T02:02:34;101502.16;;;17.89;65.15
43824;BME280;29470;53.550;9.926;2023-06-14T02:07:37;101513.81;;;17.61;66.51
43824;BME280;29470;53.550;9.926;2023-06-14T02:12:42;101507.94;;;17.65;66.41
43824;BME280;29470;53.550;9.926;2023-06-14T02:17:45;101514.44;;;17.73;66.20
43824;BME280;29470;53.550;9.926;2023-06-14T02:22:51;101521.41;;;17.73;66.32
43824;BME280;29470;53.550;9.926;2023-06-14T02:27:55;101516.81;;;17.52;67.20
43824;BME280;29470;53.550;9.926;2023-06-14T02:32:58;101524.13;;;17.58;67.57
43824;BME280;29470;53.550;9.926;2023-06-14T02:38:01;101525.25;;;17.63;67.38
43824;BME280;29470;53.550;9.926;2023-06-14T02:43:06;101519.38;;;17.50;68.02
43824;BME280;29470;53.550;9.926;2023-06-14T02:48:09;101531.69;;;17.36;68.62
43824;BME280;29470;53.550;9.926;2023-06-14T02:53:14;101534.38;;;17.21;68.82
43824;BME280;29470;53.550;9.926;2023-06-14T02:58:19;101534.47;;;17.56;68.55
43824;BME280;29470;53.550;9.926;2023-06-14T03:03:22;101525.66;;;17.54;68.09
43824;BME280;29470;53.550;9.926;2023-06-14T03:08:29;101535.38;;;17.40;68.65
43824;BME280;29470;53.550;9.926;2023-06-14T03:13:37;101536.22;;;17.56;68.55
43824;BME280;29470;53.550;9.926;2023-06-14T03:18:40;101541.44;;;17.56;68.54
43824;BME280;29470;53.550;9.926;2023-06-14T03:23:43;101545.81;;;17.73;68.02
43824;BME280;29470;53.550;9.926;2023-06-14T03:28:48;101553.44;;;17.69;68.63
43824;BME280;29470;53.550;9.926;2023-06-14T03:33:51;101556.81;;;17.49;68.80
43824;BME280;29470;53.550;9.926;2023-06-14T03:38:55;101551.06;;;17.73;67.88
43824;BME280;29470;53.550;9.926;2023-06-14T03:44:00;101562.34;;;17.89;68.11
43824;BME280;29470;53.550;9.926;2023-06-14T03:49:03;101567.16;;;17.31;70.17
43824;BME280;29470;53.550;9.926;2023-06-14T03:54:06;101563.50;;;17.61;69.38
43824;BME280;29470;53.550;9.926;2023-06-14T03:59:31;101574.03;;;17.79;69.21
43824;BME280;29470;53.550;9.926;2023-06-14T04:04:34;101586.56;;;17.51;70.62
43824;BME280;29470;53.550;9.926;2023-06-14T04:09:37;101594.56;;;17.71;70.18
43824;BME280;29470;53.550;9.926;2023-06-14T04:14:41;101601.09;;;17.79;69.55
43824;BME280;29470;53.550;9.926;2023-06-14T04:19:45;101603.22;;;17.87;69.92
43824;BME280;29470;53.550;9.926;2023-06-14T04:24:49;101601.03;;;18.28;67.48
43824;BME280;29470;53.550;9.926;2023-06-14T04:30:07;101600.06;;;18.25;67.17
43824;BME280;29470;53.550;9.926;2023-06-14T04:35:15;101614.34;;;17.99;68.32
43824;BME280;29470;53.550;9.926;2023-06-14T04:40:20;101603.00;;;18.32;67.60
43824;BME280;29470;53.550;9.926;2023-06-14T04:45:24;101602.81;;;18.63;66.15
43824;BME280;29470;53.550;9.926;2023-06-14T04:50:34;101598.44;;;18.46;65.71
43824;BME280;29470;53.550;9.926;2023-06-14T04:55:38;101603.63;;;18.80;65.53
43824;BME280;29470;53.550;9.926;2023-06-14T05:00:43;101602.34;;;18.72;64.98
43824;BME280;29470;53.550;9.926;2023-06-14T05:05:46;101604.53;;;18.81;64.53
43824;BME280;29470;53.550;9.926;2023-06-14T05:10:49;101602.19;;;19.41;62.83
43824;BME280;29470;53.550;9.926;2023-06-14T05:15:53;101602.97;;;19.58;61.66
43824;BME280;29470;53.550;9.926;2023-06-14T05:20:56;101608.44;;;19.63;61.43
43824;BME280;29470;53.550;9.926;2023-06-14T05:25:59;101604.72;;;19.58;59.62
43824;BME280;29470;53.550;9.926;2023-06-14T05:31:05;101603.28;;;20.04;58.09
43824;BME280;29470;53.550;9.926;2023-06-14T05:36:08;101605.78;;;20.42;56.23
43824;BME280;29470;53.550;9.926;2023-06-14T05:41:12;101607.09;;;20.52;56.62
43824;BME280;29470;53.550;9.926;2023-06-14T05:46:16;101601.19;;;21.23;53.41
43824;BME280;29470;53.550;9.926;2023-06-14T05:51:23;101605.88;;;21.30;53.17
43824;BME280;29470;53.550;9.926;2023-06-14T05:56:28;101606.50;;;21.01;52.53
43824;BME280;29470;53.550;9.926;2023-06-14T06:01:32;101621.19;;;21.63;52.04
43824;BME280;29470;53.550;9.926;2023-06-14T06:06:35;101627.81;;;21.76;51.19
43824;BME280;29470;53.550;9.926;2023-06-14T06:11:38;101631.75;;;21.42;50.97
43824;BME280;29470;53.550;9.926;2023-06-14T06:16:55;101623.84;;;22.37;49.29
43824;BME280;29470;53.550;9.926;2023-06-14T06:21:58;101627.28;;;23.14;47.44
43824;BME280;29470;53.550;9.926;2023-06-14T06:27:01;101636.28;;;22.93;46.30
43824;BME280;29470;53.550;9.926;2023-06-14T06:32:07;101631.31;;;22.75;47.55
43824;BME280;29470;53.550;9.926;2023-06-14T06:37:10;101638.66;;;23.41;47.06
43824;BME280;29470;53.550;9.926;2023-06-14T06:42:12;101633.81;;;23.85;45.12
43824;BME280;29470;53.550;9.926;2023-06-14T06:47:18;101640.78;;;23.23;45.01
43824;BME280;29470;53.550;9.926;2023-06-14T06:52:21;101652.03;;;23.76;43.92
43824;BME280;29470;53.550;9.926;2023-06-14T06:57:24;101650.72;;;23.32;45.23
43824;BME280;29470;53.550;9.926;2023-06-14T07:02:29;101655.34;;;23.99;42.56
43824;BME280;29470;53.550;9.926;2023-06-14T07:07:32;101651.25;;;24.76;41.95
43824;BME280;29470;53.550;9.926;2023-06-14T07:12:35;101660.59;;;25.35;40.15
43824;BME280;29470;53.550;9.926;2023-06-14T07:17:42;101662.97;;;26.04;38.76
43824;BME280;29470;53.550;9.926;2023-06-14T07:22:45;101661.91;;;25.94;37.51
43824;BME280;29470;53.550;9.926;2023-06-14T07:27:48;101658.06;;;27.27;36.13
43824;BME280;29470;53.550;9.926;2023-06-14T07:32:53;101650.47;;;28.29;33.79
43824;BME280;29470;53.550;9.926;2023-06-14T07:37:56;101653.44;;;30.04;31.76
43824;BME280;29470;53.550;9.926;2023-06-14T07:42:59;101644.66;;;32.78;28.18
43824;BME280;29470;53.550;9.926;2023-06-14T07:48:05;101649.53;;;34.62;25.71
43824;BME280;29470;53.550;9.926;2023-06-14T07:53:08;101646.38;;;35.79;24.21
43824;BME280;29470;53.550;9.926;2023-06-14T07:58:11;101647.22;;;36.93;23.24
43824;BME280;29470;53.550;9.926;2023-06-14T08:03:16;101649.59;;;38.81;21.20
43824;BME280;29470;53.550;9.926;2023-06-14T08:08:21;101632.41;;;38.57;21.28
43824;BME280;29470;53.550;9.926;2023-06-14T08:13:26;101634.25;;;37.09;22.33
43824;BME280;29470;53.550;9.926;2023-06-14T08:18:30;101633.22;;;36.42;22.56
43824;BME280;29470;53.550;9.926;2023-06-14T08:23:33;101638.31;;;35.35;24.43
43824;BME280;29470;53.550;9.926;2023-06-14T08:28:36;101645.84;;;33.38;26.24
43824;BME280;29470;53.550;9.926;2023-06-14T08:33:40;101633.84;;;32.90;26.91
43824;BME280;29470;53.550;9.926;2023-06-14T08:38:45;101645.00;;;29.19;31.09
43824;BME280;29470;53.550;9.926;2023-06-14T08:43:48;101636.81;;;27.27;34.47
43824;BME280;29470;53.550;9.926;2023-06-14T08:48:53;101639.78;;;25.92;36.28
43824;BME280;29470;53.550;9.926;2023-06-14T08:53:58;101649.53;;;25.95;36.15
43824;BME280;29470;53.550;9.926;2023-06-14T08:59:03;101646.34;;;25.28;37.59
43824;BME280;29470;53.550;9.926;2023-06-14T09:04:07;101657.88;;;24.59;38.51
43824;BME280;29470;53.550;9.926;2023-06-14T09:09:10;101643.78;;;24.60;38.45
43824;BME280;29470;53.550;9.926;2023-06-14T09:14:14;101651.00;;;24.33;38.86
43824;BME280;29470;53.550;9.926;2023-06-14T09:19:23;101640.91;;;24.52;38.32
43824;BME280;29470;53.550;9.926;2023-06-14T09:24:26;101640.34;;;25.37;37.36
43824;BME280;29470;53.550;9.926;2023-06-14T09:29:29;101634.75;;;25.23;37.22
43824;BME280;29470;53.550;9.926;2023-06-14T09:34:34;101647.81;;;24.79;38.14
43824;BME280;29470;53.550;9.926;2023-06-14T09:39:49;101642.00;;;25.32;37.00
43824;BME280;29470;53.550;9.926;2023-06-14T09:51:43;101643.47;;;26.00;36.60
43824;BME280;29470;53.550;9.926;2023-06-14T09:56:48;101642.50;;;25.97;36.92
43824;BME280;29470;53.550;9.926;2023-06-14T10:01:51;101648.06;;;25.66;37.61
43824;BME280;29470;53.550;9.926;2023-06-14T10:06:56;101643.91;;;25.79;37.22
43824;BME280;29470;53.550;9.926;2023-06-14T10:11:59;101637.00;;;25.86;37.47
43824;BME280;29470;53.550;9.926;2023-06-14T10:17:06;101630.47;;;25.70;37.72
43824;BME280;29470;53.550;9.926;2023-06-14T10:22:16;101638.06;;;25.53;37.80
43824;BME280;29470;53.550;9.926;2023-06-14T10:27:20;101635.91;;;25.36;38.04
43824;BME280;29470;53.550;9.926;2023-06-14T10:32:25;101629.75;;;25.37;37.93
43824;BME280;29470;53.550;9.926;2023-06-14T10:37:31;101635.41;;;25.14;38.38
43824;BME280;29470;53.550;9.926;2023-06-14T10:42:34;101623.56;;;25.77;37.59
43824;BME280;29470;53.550;9.926;2023-06-14T10:47:37;101623.94;;;25.95;36.45
43824;BME280;29470;53.550;9.926;2023-06-14T10:52:43;101625.75;;;25.55;37.37
43824;BME280;29470;53.550;9.926;2023-06-14T10:57:49;101619.03;;;26.15;36.44
43824;BME280;29470;53.550;9.926;2023-06-14T11:03:27;101610.56;;;25.91;35.99
43824;BME280;29470;53.550;9.926;2023-06-14T11:14:11;101596.41;;;26.87;34.17
43824;BME280;29470;53.550;9.926;2023-06-14T11:19:14;101591.75;;;26.21;35.16
43824;BME280;29470;53.550;9.926;2023-06-14T11:24:19;101594.63;;;26.87;35.33
43824;BME280;29470;53.550;9.926;2023-06-14T11:29:24;101584.50;;;26.63;35.52
43824;BME280;29470;53.550;9.926;2023-06-14T11:34:27;101588.44;;;25.44;37.23
43824;BME280;29470;53.550;9.926;2023-06-14T11:39:30;101579.63;;;25.89;36.48
43824;BME280;29470;53.550;9.926;2023-06-14T11:44:34;101578.19;;;26.06;36.48
43824;BME280;29470;53.550;9.926;2023-06-14T11:49:37;101564.97;;;26.59;35.54
43824;BME280;29470;53.550;9.926;2023-06-14T11:54:41;101566.56;;;25.99;36.54
43824;BME280;29470;53.550;9.926;2023-06-14T11:59:45;101574.28;;;26.34;35.67
43824;BME280;29470;53.550;9.926;2023-06-14T12:04:49;101567.06;;;25.79;36.52
43824;BME280;29470;53.550;9.926;2023-06-14T12:10:04;101551.69;;;26.06;37.08
43824;BME280;29470;53.550;9.926;2023-06-14T12:15:11;101545.59;;;26.11;36.49
43824;BME280;29470;53.550;9.926;2023-06-14T12:20:15;101543.44;;;26.38;35.81
43824;BME280;29470;53.550;9.926;2023-06-14T12:25:23;101540.50;;;26.79;35.95
43824;BME280;29470;53.550;9.926;2023-06-14T12:30:30;101544.88;;;25.72;37.21
43824;BME280;29470;53.550;9.926;2023-06-14T12:35:32;101547.22;;;25.57;36.63
43824;BME280;29470;53.550;9.926;2023-06-14T12:40:35;101549.84;;;26.01;36.87
43824;BME280;29470;53.550;9.926;2023-06-14T12:45:40;101545.34;;;25.99;37.17
43824;BME280;29470;53.550;9.926;2023-06-14T12:50:43;101547.34;;;26.11;37.08
43824;BME280;29470;53.550;9.926;2023-06-14T12:55:46;101533.91;;;27.11;35.07
43824;BME280;29470;53.550;9.926;2023-06-14T13:00:50;101533.72;;;26.97;35.20
43824;BME280;29470;53.550;9.926;2023-06-14T13:05:53;101533.66;;;25.86;36.27
43824;BME280;29470;53.550;9.926;2023-06-14T13:10:56;101532.72;;;25.84;35.54
43824;BME280;29470;53.550;9.926;2023-06-14T13:16:00;101524.66;;;27.48;33.51
43824;BME280;29470;53.550;9.926;2023-06-14T13:21:03;101525.97;;;27.12;34.83
43824;BME280;29470;53.550;9.926;2023-06-14T13:26:06;101531.22;;;27.09;34.75
43824;BME280;29470;53.550;9.926;2023-06-14T13:31:10;101525.28;;;26.12;35.89
43824;BME280;29470;53.550;9.926;2023-06-14T13:36:13;101522.88;;;26.24;35.28
43824;BME280;29470;53.550;9.926;2023-06-14T13:41:16;101521.41;;;26.43;35.32
43824;BME280;29470;53.550;9.926;2023-06-14T13:46:20;101519.19;;;27.34;34.27
43824;BME280;29470;53.550;9.926;2023-06-14T13:51:23;101530.31;;;27.07;35.31
43824;BME280;29470;53.550;9.926;2023-06-14T13:56:28;101516.41;;;26.10;34.50
43824;BME280;29470;53.550;9.926;2023-06-14T14:01:32;101513.53;;;26.50;34.91
43824;BME280;29470;53.550;9.926;2023-06-14T14:06:36;101511.66;;;26.42;35.18
43824;BME280;29470;53.550;9.926;2023-06-14T14:11:38;101507.41;;;26.54;35.53
43824;BME280;29470;53.550;9.926;2023-06-14T14:16:45;101496.13;;;26.67;34.69
43824;BME280;29470;53.550;9.926;2023-06-14T14:21:47;101502.16;;;26.57;35.18
43824;BME280;29470;53.550;9.926;2023-06-14T14:26:51;101503.06;;;26.05;35.46
43824;BME280;29470;53.550;9.926;2023-06-14T14:31:56;101514.84;;;26.20;34.81
43824;BME280;29470;53.550;9.926;2023-06-14T14:36:59;101501.88;;;26.37;34.54
43824;BME280;29470;53.550;9.926;2023-06-14T14:42:02;101505.13;;;26.79;33.63
43824;BME280;29470;53.550;9.926;2023-06-14T14:47:07;101500.94;;;26.93;34.00
43824;BME280;29470;53.550;9.926;2023-06-14T14:52:10;101500.38;;;26.57;34.63
43824;BME280;29470;53.550;9.926;2023-06-14T14:57:24;101513.16;;;26.25;35.03
43824;BME280;29470;53.550;9.926;2023-06-14T15:02:29;101519.44;;;25.81;35.31
43824;BME280;29470;53.550;9.926;2023-06-14T15:07:32;101507.06;;;25.81;35.34
43824;BME280;29470;53.550;9.926;2023-06-14T15:12:35;101503.69;;;25.90;34.76
43824;BME280;29470;53.550;9.926;2023-06-14T15:17:40;101500.69;;;26.79;33.47
43824;BME280;29470;53.550;9.926;2023-06-14T15:22:43;101520.31;;;26.86;33.56
43824;BME280;29470;53.550;9.926;2023-06-14T15:27:47;101496.72;;;27.08;32.70
43824;BME280;29470;53.550;9.926;2023-06-14T15:32:51;101510.31;;;26.69;33.66
43824;BME280;29470;53.550;9.926;2023-06-14T15:37:54;101507.13;;;26.35;33.99
43824;BME280;29470;53.550;9.926;2023-06-14T15:42:57;101504.00;;;26.61;33.70
43824;BME280;29470;53.550;9.926;2023-06-14T15:48:01;101506.94;;;26.23;34.04
43824;BME280;29470;53.550;9.926;2023-06-14T15:53:04;101504.16;;;26.15;34.15
43824;BME280;29470;53.550;9.926;2023-06-14T15:58:07;101498.03;;;26.19;33.95
43824;BME280;29470;53.550;9.926;2023-06-14T16:03:13;101500.47;;;26.08;33.88
43824;BME280;29470;53.550;9.926;2023-06-14T16:08:16;101508.19;;;25.96;34.17
43824;BME280;29470;53.550;9.926;2023-06-14T16:13:41;101496.03;;;26.07;33.87
43824;BME280;29470;53.550;9.926;2023-06-14T16:18:46;101491.53;;;26.01;34.31
43824;BME280;29470;53.550;9.926;2023-06-14T16:23:49;101500.03;;;25.82;34.54
43824;BME280;29470;53.550;9.926;2023-06-14T16:28:59;101492.22;;;25.91;34.44
43824;BME280;29470;53.550;9.926;2023-06-14T16:34:03;101498.00;;;25.70;34.46
43824;BME280;29470;53.550;9.926;2023-06-14T16:39:11;101505.38;;;25.85;34.12
43824;BME280;29470;53.550;9.926;2023-06-14T16:44:14;101501.41;;;25.61;34.21
43824;BME280;29470;53.550;9.926;2023-06-14T16:49:18;101505.09;;;25.69;34.27
43824;BME280;29470;53.550;9.926;2023-06-14T16:54:21;101519.69;;;25.47;34.15
43824;BME280;29470;53.550;9.926;2023-06-14T16:59:24;101508.59;;;25.68;34.08
43824;BME280;29470;53.550;9.926;2023-06-14T17:04:28;101512.00;;;25.18;34.68
43824;BME280;29470;53.550;9.926;2023-06-14T17:09:31;101515.50;;;25.19;34.65
43824;BME280;29470;53.550;9.926;2023-06-14T17:14:34;101519.41;;;24.95;34.86
43824;BME280;29470;53.550;9.926;2023-06-14T17:19:38;101520.41;;;25.00;34.39
43824;BME280;29470;53.550;9.926;2023-06-14T17:24:41;101527.06;;;24.82;34.80
43824;BME280;29470;53.550;9.926;2023-06-14T17:29:45;101530.19;;;25.03;34.29
43824;BME280;29470;53.550;9.926;2023-06-14T17:34:49;101530.41;;;25.13;34.25
43824;BME280;29470;53.550;9.926;2023-06-14T17:39:52;101535.22;;;25.32;33.95
43824;BME280;29470;53.550;9.926;2023-06-14T17:44:54;101534.19;;;25.25;33.78
43824;BME280;29470;53.550;9.926;2023-06-14T17:49:59;101531.31;;;25.55;33.42
43824;BME280;29470;53.550;9.926;2023-06-14T17:55:05;101537.19;;;25.42;33.15
43824;BME280;29470;53.550;9.926;2023-06-14T18:00:08;101536.84;;;24.85;33.30
43824;BME280;29470;53.550;9.926;2023-06-14T18:05:16;101549.53;;;24.28;33.08
43824;BME280;29470;53.550;9.926;2023-06-14T18:10:19;101547.75;;;24.27;33.04
43824;BME280;29470;53.550;9.926;2023-06-14T18:15:22;101548.69;;;24.29;32.90
43824;BME280;29470;53.550;9.926;2023-06-14T18:20:26;101549.84;;;24.40;32.88
43824;BME280;29470;53.550;9.926;2023-06-14T18:25:30;101552.31;;;23.99;32.93
43824;BME280;29470;53.550;9.926;2023-06-14T18:30:33;101561.34;;;24.41;32.58
43824;BME280;29470;53.550;9.926;2023-06-14T18:35:37;101560.50;;;24.42;32.76
43824;BME280;29470;53.550;9.926;2023-06-14T18:40:40;101567.78;;;24.17;32.83
43824;BME280;29470;53.550;9.926;2023-06-14T18:45:43;101574.84;;;23.86;33.14
43824;BME280;29470;53.550;9.926;2023-06-14T18:50:47;101568.84;;;23.60;33.26
43824;BME280;29470;53.550;9.926;2023-06-14T18:55:50;101566.06;;;23.87;33.34
43824;BME280;29470;53.550;9.926;2023-06-14T19:00:53;101570.47;;;23.56;33.23
43824;BME280;29470;53.550;9.926;2023-06-14T19:05:58;101572.19;;;23.23;33.93
43824;BME280;29470;53.550;9.926;2023-06-14T19:11:01;101568.97;;;23.06;34.42
43824;BME280;29470;53.550;9.926;2023-06-14T19:16:04;101569.84;;;23.34;34.04
43824;BME280;29470;53.550;9.926;2023-06-14T19:21:08;101579.63;;;23.37;33.90
43824;BME280;29470;53.550;9.926;2023-06-14T19:26:11;101584.59;;;23.00;34.62
43824;BME280;29470;53.550;9.926;2023-06-14T19:31:14;101585.09;;;23.16;34.27
43824;BME280;29470;53.550;9.926;2023-06-14T19:36:19;101578.16;;;22.90;35.09
43824;BME280;29470;53.550;9.926;2023-06-14T19:41:22;101586.69;;;23.10;34.64
43824;BME280;29470;53.550;9.926;2023-06-14T19:46:26;101590.78;;;23.01;35.17
43824;BME280;29470;53.550;9.926;2023-06-14T19:51:30;101597.50;;;22.63;35.52
43824;BME280;29470;53.550;9.926;2023-06-14T19:56:34;101596.97;;;22.74;35.87
43824;BME280;29470;53.550;9.926;2023-06-14T20:01:36;101593.88;;;22.34;36.72
43824;BME280;29470;53.550;9.926;2023-06-14T20:06:41;101601.66;;;22.31;36.88
43824;BME280;29470;53.550;9.926;2023-06-14T20:11:44;101608.50;;;22.26;37.26
43824;BME280;29470;53.550;9.926;2023-06-14T20:16:46;101612.25;;;22.06;37.17
43824;BME280;29470;53.550;9.926;2023-06-14T20:21:51;101623.56;;;22.04;37.57
43824;BME280;29470;53.550;9.926;2023-06-14T20:26:54;101615.53;;;22.01;37.82
43824;BME280;29470;53.550;9.926;2023-06-14T20:31:56;101622.84;;;21.84;37.82
43824;BME280;29470;53.550;9.926;2023-06-14T20:37:01;101611.84;;;21.71;38.10
43824;BME280;29470;53.550;9.926;2023-06-14T20:42:04;101616.09;;;21.68;38.08
43824;BME280;29470;53.550;9.926;2023-06-14T20:47:26;101616.81;;;21.63;38.16
43824;BME280;29470;53.550;9.926;2023-06-14T20:52:30;101612.72;;;21.49;38.23
43824;BME280;29470;53.550;9.926;2023-06-14T20:57:34;101615.59;;;21.55;38.34
43824;BME280;29470;53.550;9.926;2023-06-14T21:02:38;101618.22;;;21.55;38.64
43824;BME280;29470;53.550;9.926;2023-06-14T21:07:42;101618.41;;;21.37;39.00
43824;BME280;29470;53.550;9.926;2023-06-14T21:12:45;101615.97;;;21.19;39.19
43824;BME280;29470;53.550;9.926;2023-06-14T21:17:48;101616.75;;;21.16;39.42
43824;BME280;29470;53.550;9.926;2023-06-14T21:22:52;101614.44;;;21.03;39.92
43824;BME280;29470;53.550;9.926;2023-06-14T21:27:55;101618.78;;;20.80;40.12
43824;BME280;29470;53.550;9.926;2023-06-14T21:32:58;101620.34;;;20.76;40.17
43824;BME280;29470;53.550;9.926;2023-06-14T21:38:02;101617.25;;;20.85;40.19
43824;BME280;29470;53.550;9.926;2023-06-14T21:43:05;101612.59;;;20.58;40.69
43824;BME280;29470;53.550;9.926;2023-06-14T21:48:08;101617.47;;;20.70;40.82
43824;BME280;29470;53.550;9.926;2023-06-14T21:53:12;101613.88;;;20.68;40.93
43824;BME280;29470;53.550;9.926;2023-06-14T21:58:15;101620.09;;;20.49;41.54
43824;BME280;29470;53.550;9.926;2023-06-14T22:03:18;101620.00;;;20.26;42.07
43824;BME280;29470;53.550;9.926;2023-06-14T22:08:23;101626.28;;;20.29;42.39
43824;BME280;29470;53.550;9.926;2023-06-14T22:13:27;101619.97;;;20.05;43.29
43824;BME280;29470;53.550;9.926;2023-06-14T22:18:30;101621.25;;;20.14;43.50
43824;BME280;29470;53.550;9.926;2023-06-14T22:23:35;101616.22;;;19.99;44.43
43824;BME280;29470;53.550;9.926;2023-06-14T22:28:38;101616.50;;;20.06;44.40
43824;BME280;29470;53.550;9.926;2023-06-14T22:33:44;101612.13;;;20.06;44.74
43824;BME280;29470;53.550;9.926;2023-06-14T22:38:49;101609.66;;;19.90;45.36
43824;BME280;29470;53.550;9.926;2023-06-14T22:43:52;101628.53;;;19.82;45.87
43824;BME280;29470;53.550;9.926;2023-06-14T22:48:57;101626.41;;;19.73;46.34
43824;BME280;29470;53.550;9.926;2023-06-14T22:54:03;101617.22;;;19.83;46.87
43824;BME280;29470;53.550;9.926;2023-06-14T22:59:10;101619.56;;;19.77;47.13
43824;BME280;29470;53.550;9.926;2023-06-14T23:04:17;101610.44;;;19.69;47.65
43824;BME280;29470;53.550;9.926;2023-06-14T23:09:23;101611.13;;;19.65;48.11
43824;BME280;29470;53.550;9.926;2023-06-14T23:14:26;101609.19;;;19.41;49.08
43824;BME280;29470;53.550;9.926;2023-06-14T23:19:30;101625.03;;;19.44;49.45
43824;BME280;29470;53.550;9.926;2023-06-14T23:24:34;101618.66;;;19.57;49.16
43824;BME280;29470;53.550;9.926;2023-06-14T23:29:36;101620.28;;;19.35;49.64
43824;BME280;29470;53.550;9.926;2023-06-14T23:34:39;101613.13;;;19.13;50.77
43824;BME280;29470;53.550;9.926;2023-06-14T23:39:43;101611.31;;;19.12;50.83
43824;BME280;29470;53.550;9.926;2023-06-14T23:44:49;101614.88;;;18.96;51.17
43824;BME280;29470;53.550;9.926;2023-06-14T23:49:53;101609.00;;;19.18;50.53
43824;BME280;29470;53.550;9.926;2023-06-14T23:54:57;101622.25;;;19.03;50.93
